Page, Arizona
Current Conditions -  °F | °C
As of 1:53 AM on Sunday 21 Dec 2014 (Local Time) from KPGA Reporting Station
Clear Clear  
Wind Chill: 34°   Ceiling: Unl
Heat Index: 34°   Visibility: 7mi
Dew Point: 28°   Wind: 3mph
Humidity: 79%   Direction: 280°W
Pressure: 30.15"   Gusts: NA
Location:  36.92°N, 111.46°W
Report Text: KPGA 210853Z AUTO 28003KT 7SM CLR 01/M02 A3015 RMK AO2 SLP210 T00111022 55003 TSNO $
Loading
Personal Weather Stations






























Interactive Weather Map New forecast layout! Learn more

10-Day Weather Forecast

Advertisements
Track Severe Weather on mobile